Time;durP1;ratioP1;P1;durP2;ratioP2;P2;SDS_P1;SDS_P2;PMS_P1;PMS_P2;Temp;Humidity;BMP_temperature;BMP_pressure;BME280_temperature;BME280_humidity;BME280_pressure;Samples;Min_cycle;Max_cycle;Signal;HPM_P1;HPM_P2
2022/04/29 00:02:10;;;;;;;8.57;4.50;;;;;;;;;;5028062;28;20133;-55
2022/04/29 00:04:36;;;;;;;6.78;4.47;;;;;;;;;;5026461;28;20045;-56
2022/04/29 00:07:03;;;;;;;6.80;4.35;;;;;;;;;;5053322;28;20186;-57
2022/04/29 00:09:29;;;;;;;6.85;4.53;;;;;;;;;;5026047;28;20396;-54
2022/04/29 00:11:54;;;;;;;7.97;4.63;;;;;;;;;;5026097;28;20041;-55
2022/04/29 00:14:23;;;;;;;5.97;4.05;;;;;;;;;;5024183;28;20029;-53
2022/04/29 00:16:48;;;;;;;7.82;4.50;;;;;;;;;;5028082;28;20112;-52
2022/04/29 00:19:14;;;;;;;5.55;3.90;;;;;;;;;;5023744;28;20259;-55
2022/04/29 00:21:41;;;;;;;5.90;3.90;;;;;;;;;;5021408;28;20061;-55
2022/04/29 00:24:09;;;;;;;10.20;4.07;;;;;;;;;;5023955;28;20050;-55
2022/04/29 00:26:35;;;;;;;5.68;4.47;;;;;;;;;;5028177;28;20717;-56
2022/04/29 00:29:00;;;;;;;5.63;4.32;;;;;;;;;;5028972;28;20490;-54
2022/04/29 00:31:28;;;;;;;5.55;3.92;;;;;;;;;;5026919;28;20041;-54
2022/04/29 00:33:54;;;;;;;6.30;4.07;;;;;;;;;;5025001;28;20069;-53
2022/04/29 00:36:20;;;;;;;7.85;4.72;;;;;;;;;;5028191;28;20076;-55
2022/04/29 00:38:45;;;;;;;6.80;4.10;;;;;;;;;;5027409;28;20415;-55
2022/04/29 00:41:18;;;;;;;7.13;4.72;;;;;;;;;;5027902;28;20493;-52
2022/04/29 00:43:44;;;;;;;10.15;4.53;;;;;;;;;;5021716;28;20033;-56
2022/04/29 00:46:10;;;;;;;7.85;4.80;;;;;;;;;;5021509;28;20053;-55
2022/04/29 00:48:35;;;;;;;8.02;4.75;;;;;;;;;;5009440;28;20080;-55
2022/04/29 00:51:01;;;;;;;7.53;4.40;;;;;;;;;;5025756;28;20077;-54
2022/04/29 00:53:29;;;;;;;8.50;5.00;;;;;;;;;;5021003;28;20155;-55
2022/04/29 00:55:56;;;;;;;8.40;4.40;;;;;;;;;;5023771;28;20034;-55
2022/04/29 00:58:31;;;;;;;9.52;5.18;;;;;;;;;;5025031;28;20080;-55
2022/04/29 01:00:56;;;;;;;8.38;4.50;;;;;;;;;;5023966;28;20045;-55
2022/04/29 01:03:23;;;;;;;7.40;4.63;;;;;;;;;;5027003;28;20056;-54
2022/04/29 01:05:49;;;;;;;11.45;4.70;;;;;;;;;;5022906;28;20041;-54
2022/04/29 01:08:14;;;;;;;5.28;4.57;;;;;;;;;;5026303;28;20091;-55
2022/04/29 01:10:40;;;;;;;10.00;4.95;;;;;;;;;;5025791;28;20128;-57
2022/04/29 01:13:06;;;;;;;8.55;4.75;;;;;;;;;;5026550;28;20115;-55
2022/04/29 01:15:32;;;;;;;6.65;4.30;;;;;;;;;;5019646;28;20057;-56
2022/04/29 01:18:06;;;;;;;9.82;4.90;;;;;;;;;;5023744;28;20093;-55
2022/04/29 01:20:33;;;;;;;8.27;5.32;;;;;;;;;;5023331;28;20170;-55
2022/04/29 01:23:03;;;;;;;7.80;5.00;;;;;;;;;;5022836;28;20038;-55
2022/04/29 01:25:28;;;;;;;8.15;5.20;;;;;;;;;;5024433;28;20103;-57
2022/04/29 01:27:54;;;;;;;7.60;4.80;;;;;;;;;;5024519;28;20463;-57
2022/04/29 01:30:20;;;;;;;11.68;6.40;;;;;;;;;;5025491;28;20544;-56
2022/04/29 01:32:46;;;;;;;5.80;4.78;;;;;;;;;;5024620;28;20131;-54
2022/04/29 01:35:14;;;;;;;9.68;5.10;;;;;;;;;;5023704;28;20125;-55
2022/04/29 01:37:40;;;;;;;10.15;5.22;;;;;;;;;;5021649;28;20069;-54
2022/04/29 01:40:06;;;;;;;8.90;5.32;;;;;;;;;;5020874;28;20085;-56
2022/04/29 01:42:32;;;;;;;8.15;5.18;;;;;;;;;;5025290;28;20052;-55
2022/04/29 01:44:57;;;;;;;11.15;5.05;;;;;;;;;;5024869;28;20045;-55
2022/04/29 01:47:23;;;;;;;7.90;5.20;;;;;;;;;;5019490;28;20033;-55
2022/04/29 01:49:49;;;;;;;8.27;5.65;;;;;;;;;;5026656;28;20083;-57
2022/04/29 01:52:14;;;;;;;8.52;5.03;;;;;;;;;;5018638;28;20053;-55
2022/04/29 01:54:39;;;;;;;9.30;5.40;;;;;;;;;;5019887;28;20514;-57
2022/04/29 01:57:06;;;;;;;6.72;5.30;;;;;;;;;;5020594;28;20065;-54
2022/04/29 01:59:32;;;;;;;8.35;5.30;;;;;;;;;;5025934;28;20478;-57
2022/04/29 02:01:58;;;;;;;10.13;5.43;;;;;;;;;;5026550;28;20184;-53
2022/04/29 02:04:24;;;;;;;6.75;5.05;;;;;;;;;;5027770;28;20132;-60
2022/04/29 02:06:50;;;;;;;7.38;5.10;;;;;;;;;;5041107;23;20072;-64
2022/04/29 02:12:05;;;;;;;8.07;5.10;;;;;;;;;;4952414;26;20082;-60
2022/04/29 02:14:31;;;;;;;8.75;5.25;;;;;;;;;;4954483;28;20049;-62
2022/04/29 02:16:57;;;;;;;9.57;5.15;;;;;;;;;;4958969;28;20039;-63
2022/04/29 02:19:24;;;;;;;9.15;5.35;;;;;;;;;;4958351;28;20128;-62
2022/04/29 02:21:49;;;;;;;11.15;5.43;;;;;;;;;;4958229;28;20058;-60
2022/04/29 02:24:15;;;;;;;8.57;5.35;;;;;;;;;;4954698;28;20073;-62
2022/04/29 02:26:41;;;;;;;11.65;5.30;;;;;;;;;;4954704;28;20051;-61
2022/04/29 02:29:09;;;;;;;14.30;5.95;;;;;;;;;;4955345;28;20058;-61
2022/04/29 02:31:35;;;;;;;10.48;6.40;;;;;;;;;;4954865;28;20081;-61
2022/04/29 02:34:00;;;;;;;8.65;5.63;;;;;;;;;;4954709;28;20059;-62
2022/04/29 02:36:26;;;;;;;8.52;5.40;;;;;;;;;;4938514;28;20066;-60
2022/04/29 02:38:51;;;;;;;9.25;6.05;;;;;;;;;;4954611;28;20090;-62
2022/04/29 02:41:17;;;;;;;9.60;6.43;;;;;;;;;;4958348;28;20027;-61
2022/04/29 02:43:43;;;;;;;12.82;6.40;;;;;;;;;;4956601;28;20320;-61
2022/04/29 02:46:08;;;;;;;9.23;6.18;;;;;;;;;;4958663;28;20078;-61
2022/04/29 02:48:34;;;;;;;12.35;8.15;;;;;;;;;;4955312;28;20198;-60
2022/04/29 02:50:59;;;;;;;10.55;5.53;;;;;;;;;;4960739;28;20132;-61
2022/04/29 02:53:25;;;;;;;10.27;6.47;;;;;;;;;;4953420;28;20042;-62
2022/04/29 02:55:51;;;;;;;11.35;5.82;;;;;;;;;;4959198;28;20046;-63
2022/04/29 02:58:16;;;;;;;10.13;6.10;;;;;;;;;;4958009;28;20119;-62
2022/04/29 03:00:42;;;;;;;9.73;6.05;;;;;;;;;;4957478;28;20058;-61
2022/04/29 03:03:08;;;;;;;9.95;6.10;;;;;;;;;;4955620;28;20047;-62
2022/04/29 03:05:34;;;;;;;10.80;6.72;;;;;;;;;;4960688;28;20051;-61
2022/04/29 03:07:59;;;;;;;12.23;7.00;;;;;;;;;;4954300;28;20046;-61
2022/04/29 03:10:25;;;;;;;11.75;6.50;;;;;;;;;;4954945;28;20077;-62
2022/04/29 03:12:51;;;;;;;11.80;7.10;;;;;;;;;;4940562;28;20138;-62
2022/04/29 03:15:17;;;;;;;13.13;7.10;;;;;;;;;;4957691;28;20079;-61
2022/04/29 03:20:37;;;;;;;14.88;7.80;;;;;;;;;;4937897;29;20042;-61
2022/04/29 03:23:04;;;;;;;12.77;7.40;;;;;;;;;;4937260;29;20405;-61
2022/04/29 03:25:29;;;;;;;13.60;6.50;;;;;;;;;;4936288;29;20050;-61
2022/04/29 03:27:55;;;;;;;12.70;6.80;;;;;;;;;;4933235;29;20358;-62
2022/04/29 03:30:20;;;;;;;13.18;7.10;;;;;;;;;;4933790;29;20541;-61
2022/04/29 03:32:56;;;;;;;15.20;7.10;;;;;;;;;;4936535;29;20055;-61
2022/04/29 03:35:22;;;;;;;14.73;7.72;;;;;;;;;;4935626;29;20335;-62
2022/04/29 03:37:52;;;;;;;20.92;7.40;;;;;;;;;;4935611;29;20043;-62
2022/04/29 03:40:21;;;;;;;10.93;7.00;;;;;;;;;;4933415;29;20115;-61
2022/04/29 03:42:51;;;;;;;12.32;7.28;;;;;;;;;;4934086;29;20351;-61
2022/04/29 03:45:18;;;;;;;12.70;6.85;;;;;;;;;;4937392;29;20054;-60
2022/04/29 03:47:44;;;;;;;15.20;7.43;;;;;;;;;;4938447;29;20114;-61
2022/04/29 03:50:10;;;;;;;12.85;7.10;;;;;;;;;;4939687;29;20055;-61
2022/04/29 03:52:49;;;;;;;14.10;7.70;;;;;;;;;;4938668;29;20183;-61
2022/04/29 03:55:15;;;;;;;14.00;7.75;;;;;;;;;;4936268;29;20055;-62
2022/04/29 03:57:41;;;;;;;11.80;7.28;;;;;;;;;;4935173;29;20054;-62
2022/04/29 04:00:08;;;;;;;17.05;8.63;;;;;;;;;;4935248;29;20050;-62
2022/04/29 04:02:34;;;;;;;13.68;7.82;;;;;;;;;;4935338;29;20194;-62
2022/04/29 04:04:59;;;;;;;15.43;7.63;;;;;;;;;;4937883;29;20118;-61
2022/04/29 04:07:25;;;;;;;16.23;7.95;;;;;;;;;;4933051;29;20054;-63
2022/04/29 04:09:50;;;;;;;14.32;7.57;;;;;;;;;;4934006;29;20043;-62
2022/04/29 04:12:16;;;;;;;24.48;9.02;;;;;;;;;;4936671;29;20359;-61
2022/04/29 04:14:42;;;;;;;21.98;8.70;;;;;;;;;;4935743;29;20052;-62
2022/04/29 04:17:08;;;;;;;16.85;7.80;;;;;;;;;;4928585;29;20377;-63
2022/04/29 04:19:34;;;;;;;21.45;7.43;;;;;;;;;;4932168;29;21632;-62
2022/04/29 04:22:01;;;;;;;17.58;7.57;;;;;;;;;;4935311;29;20473;-62
2022/04/29 04:24:26;;;;;;;15.95;7.75;;;;;;;;;;4927951;29;20360;-62
2022/04/29 04:26:51;;;;;;;21.02;8.13;;;;;;;;;;4932037;29;20475;-62
2022/04/29 04:29:17;;;;;;;17.25;8.45;;;;;;;;;;4933315;29;20133;-60
2022/04/29 04:31:42;;;;;;;18.45;7.82;;;;;;;;;;4934734;29;20118;-61
2022/04/29 04:36:55;;;;;;;11.98;6.88;;;;;;;;;;4936660;29;20071;-61
2022/04/29 04:39:21;;;;;;;19.00;7.45;;;;;;;;;;4935848;29;20043;-61
2022/04/29 04:41:48;;;;;;;17.65;7.93;;;;;;;;;;4930838;29;20040;-62
2022/04/29 04:44:13;;;;;;;14.43;7.45;;;;;;;;;;4934266;29;20111;-63
2022/04/29 04:46:38;;;;;;;13.18;7.22;;;;;;;;;;4936168;29;20234;-61
2022/04/29 04:49:04;;;;;;;13.60;7.65;;;;;;;;;;4930710;29;20504;-61
2022/04/29 04:51:29;;;;;;;16.35;7.13;;;;;;;;;;4932944;29;20086;-63
2022/04/29 04:53:55;;;;;;;20.77;7.18;;;;;;;;;;4934883;29;20480;-61
2022/04/29 04:56:20;;;;;;;16.60;7.30;;;;;;;;;;4934385;29;20458;-61
2022/04/29 04:58:46;;;;;;;11.80;7.20;;;;;;;;;;4936154;29;20036;-61
2022/04/29 05:01:11;;;;;;;17.85;7.15;;;;;;;;;;4934647;29;20062;-61
2022/04/29 05:03:37;;;;;;;12.25;7.05;;;;;;;;;;4918080;29;20070;-61
2022/04/29 05:06:02;;;;;;;12.38;6.78;;;;;;;;;;4935004;28;20047;-61
2022/04/29 05:08:28;;;;;;;16.17;7.88;;;;;;;;;;4932527;29;20031;-61
2022/04/29 05:10:53;;;;;;;12.70;7.20;;;;;;;;;;4936786;29;20031;-61
2022/04/29 05:13:19;;;;;;;10.00;7.18;;;;;;;;;;4914490;29;20446;-61
2022/04/29 05:15:44;;;;;;;12.63;7.90;;;;;;;;;;4933740;29;20122;-62
2022/04/29 05:18:10;;;;;;;10.52;7.03;;;;;;;;;;4934708;29;20478;-61
2022/04/29 05:20:36;;;;;;;12.07;7.40;;;;;;;;;;4933776;28;20432;-61
2022/04/29 05:23:01;;;;;;;13.10;7.63;;;;;;;;;;4934415;29;20035;-62
2022/04/29 05:25:26;;;;;;;12.77;7.75;;;;;;;;;;4937311;29;20059;-60
2022/04/29 05:27:52;;;;;;;10.85;7.13;;;;;;;;;;4933663;29;20074;-60
2022/04/29 05:30:17;;;;;;;12.65;7.50;;;;;;;;;;4934530;29;20082;-60
2022/04/29 05:32:43;;;;;;;10.57;7.10;;;;;;;;;;4932234;29;20052;-62
2022/04/29 05:35:10;;;;;;;17.35;6.93;;;;;;;;;;4935371;29;20044;-61
2022/04/29 05:37:36;;;;;;;14.82;7.63;;;;;;;;;;4940419;29;20518;-61
2022/04/29 05:42:47;;;;;;;13.90;7.10;;;;;;;;;;4938109;28;20054;-61
2022/04/29 05:45:13;;;;;;;12.05;6.75;;;;;;;;;;4934955;29;20055;-60
2022/04/29 05:47:38;;;;;;;11.40;7.10;;;;;;;;;;4940009;29;20430;-60
2022/04/29 05:50:05;;;;;;;10.77;7.10;;;;;;;;;;4933488;29;20134;-61
2022/04/29 05:52:30;;;;;;;12.10;7.63;;;;;;;;;;4940725;29;20138;-61
2022/04/29 05:54:56;;;;;;;10.40;7.38;;;;;;;;;;4935255;29;21097;-61
2022/04/29 05:57:21;;;;;;;10.73;7.22;;;;;;;;;;4936949;29;20051;-61
2022/04/29 05:59:46;;;;;;;12.52;6.88;;;;;;;;;;4937527;29;20048;-59
2022/04/29 06:02:12;;;;;;;9.70;6.57;;;;;;;;;;4934857;29;20032;-61
2022/04/29 06:04:37;;;;;;;13.50;6.95;;;;;;;;;;4937418;29;20409;-61
2022/04/29 06:07:03;;;;;;;14.82;7.28;;;;;;;;;;4935242;29;20040;-60
2022/04/29 06:09:28;;;;;;;10.43;6.80;;;;;;;;;;4938210;29;20043;-60
2022/04/29 06:11:54;;;;;;;11.52;6.97;;;;;;;;;;4932009;29;20047;-60
2022/04/29 06:14:19;;;;;;;15.52;7.03;;;;;;;;;;4934084;29;20210;-60
2022/04/29 06:16:46;;;;;;;12.57;6.63;;;;;;;;;;4936587;29;20111;-60
2022/04/29 06:19:12;;;;;;;9.27;6.18;;;;;;;;;;4923786;29;20512;-60
2022/04/29 06:21:40;;;;;;;11.55;6.65;;;;;;;;;;4936271;29;20047;-59
2022/04/29 06:24:06;;;;;;;10.25;6.82;;;;;;;;;;4944029;29;20039;-61
2022/04/29 06:26:32;;;;;;;14.32;7.20;;;;;;;;;;4938133;29;20030;-62
2022/04/29 06:28:57;;;;;;;9.35;6.57;;;;;;;;;;4941412;29;20110;-61
2022/04/29 06:31:22;;;;;;;11.70;6.43;;;;;;;;;;4935146;29;20146;-62
2022/04/29 06:33:48;;;;;;;9.20;6.53;;;;;;;;;;4941037;29;20063;-60
2022/04/29 06:36:14;;;;;;;10.18;6.78;;;;;;;;;;4918019;29;20212;-60
2022/04/29 06:38:39;;;;;;;10.10;6.68;;;;;;;;;;4939926;29;20044;-60
2022/04/29 06:41:05;;;;;;;9.10;6.47;;;;;;;;;;4935558;29;20122;-60
2022/04/29 06:43:30;;;;;;;8.50;6.53;;;;;;;;;;4936159;29;20071;-61
2022/04/29 06:45:56;;;;;;;10.98;6.13;;;;;;;;;;4936799;29;20086;-61
2022/04/29 06:48:22;;;;;;;8.60;6.60;;;;;;;;;;4937778;29;20055;-60
2022/04/29 06:50:47;;;;;;;7.90;6.20;;;;;;;;;;4936485;29;20120;-61
2022/04/29 06:53:12;;;;;;;9.55;6.65;;;;;;;;;;4935567;29;20098;-60
2022/04/29 06:55:39;;;;;;;8.57;7.07;;;;;;;;;;4936001;29;20059;-59
2022/04/29 06:58:06;;;;;;;10.95;6.57;;;;;;;;;;4939655;29;20070;-60
2022/04/29 07:00:32;;;;;;;10.63;6.75;;;;;;;;;;4938773;29;20063;-60
2022/04/29 07:02:58;;;;;;;11.13;6.60;;;;;;;;;;4932460;29;20118;-61
2022/04/29 07:05:23;;;;;;;10.75;7.07;;;;;;;;;;4938217;29;20425;-60
2022/04/29 07:07:52;;;;;;;10.75;6.40;;;;;;;;;;4938917;29;20032;-60
2022/04/29 07:10:17;;;;;;;8.40;6.55;;;;;;;;;;4937131;29;20058;-60
2022/04/29 07:12:44;;;;;;;9.30;6.35;;;;;;;;;;4934701;29;20048;-61
2022/04/29 07:15:14;;;;;;;9.75;7.03;;;;;;;;;;4939259;29;20139;-60
2022/04/29 07:17:41;;;;;;;7.82;6.35;;;;;;;;;;4935124;29;20378;-60
2022/04/29 07:20:07;;;;;;;8.73;6.68;;;;;;;;;;4940477;29;20055;-60
2022/04/29 07:22:32;;;;;;;7.22;6.35;;;;;;;;;;4938366;29;20043;-60
2022/04/29 07:24:58;;;;;;;9.25;6.45;;;;;;;;;;4939490;29;20374;-60
2022/04/29 07:27:23;;;;;;;8.70;5.93;;;;;;;;;;4919764;29;20132;-62
2022/04/29 07:29:49;;;;;;;11.85;6.90;;;;;;;;;;4935231;29;20079;-60
2022/04/29 07:32:14;;;;;;;8.65;6.45;;;;;;;;;;4934505;29;20039;-60
2022/04/29 07:42:52;;;;;;;12.90;6.50;;;;;;;;;;4939065;29;20574;-61
2022/04/29 07:45:18;;;;;;;13.25;6.85;;;;;;;;;;4937295;29;20142;-61
2022/04/29 07:47:43;;;;;;;12.23;6.88;;;;;;;;;;4938406;29;20150;-60
2022/04/29 07:50:09;;;;;;;8.25;6.32;;;;;;;;;;4919078;29;20083;-60
2022/04/29 07:52:35;;;;;;;11.80;6.20;;;;;;;;;;4936897;29;20075;-60
2022/04/29 07:55:01;;;;;;;10.32;6.35;;;;;;;;;;4934709;29;20492;-60
2022/04/29 07:57:26;;;;;;;10.48;6.72;;;;;;;;;;4935770;29;20186;-60
2022/04/29 07:59:52;;;;;;;12.43;7.20;;;;;;;;;;4939213;29;20134;-61
2022/04/29 08:02:17;;;;;;;11.63;6.60;;;;;;;;;;4934780;29;20094;-60
2022/04/29 08:04:43;;;;;;;11.98;6.72;;;;;;;;;;4937060;29;20054;-60
2022/04/29 08:07:11;;;;;;;11.15;6.50;;;;;;;;;;4937012;29;20043;-59
2022/04/29 08:09:36;;;;;;;11.57;6.60;;;;;;;;;;4935286;29;20052;-60
2022/04/29 08:12:03;;;;;;;11.82;7.10;;;;;;;;;;4934169;29;20093;-60
2022/04/29 08:14:28;;;;;;;13.68;7.65;;;;;;;;;;4929601;29;20118;-60
2022/04/29 08:16:53;;;;;;;11.45;7.30;;;;;;;;;;4932464;29;20351;-60
2022/04/29 08:19:19;;;;;;;11.98;6.65;;;;;;;;;;4937181;29;20485;-59
2022/04/29 08:21:44;;;;;;;9.45;6.43;;;;;;;;;;4935871;29;20052;-60
2022/04/29 08:24:10;;;;;;;11.13;6.65;;;;;;;;;;4940560;29;20377;-60
2022/04/29 08:26:35;;;;;;;12.05;7.40;;;;;;;;;;4933686;29;20190;-61
2022/04/29 08:29:00;;;;;;;9.93;6.43;;;;;;;;;;4937004;29;20035;-59
2022/04/29 08:31:26;;;;;;;22.98;7.53;;;;;;;;;;4931856;29;20134;-60
2022/04/29 08:33:51;;;;;;;12.82;7.35;;;;;;;;;;4938073;29;20394;-62
2022/04/29 08:36:17;;;;;;;17.05;7.30;;;;;;;;;;4933701;29;20471;-60
2022/04/29 08:38:43;;;;;;;12.73;6.72;;;;;;;;;;4937369;29;20043;-61
2022/04/29 08:41:09;;;;;;;14.70;6.97;;;;;;;;;;4933811;29;20070;-61
2022/04/29 08:43:35;;;;;;;15.52;6.57;;;;;;;;;;4936927;29;20095;-60
2022/04/29 08:46:02;;;;;;;19.73;6.57;;;;;;;;;;4937215;29;20043;-60
2022/04/29 08:48:30;;;;;;;8.55;6.63;;;;;;;;;;4935450;29;20086;-60
2022/04/29 08:50:58;;;;;;;17.60;7.82;;;;;;;;;;4935513;29;20504;-60
2022/04/29 08:53:23;;;;;;;12.75;7.43;;;;;;;;;;4932988;29;20466;-60
2022/04/29 08:58:40;;;;;;;14.38;8.20;;;;;;;;;;4937087;28;20078;-59
2022/04/29 09:01:15;;;;;;;21.70;8.93;;;;;;;;;;4931839;29;20043;-59
2022/04/29 09:03:43;;;;;;;21.25;7.13;;;;;;;;;;4935391;29;20063;-61
2022/04/29 09:06:09;;;;;;;17.52;6.88;;;;;;;;;;4936494;28;20093;-61
2022/04/29 09:08:42;;;;;;;16.98;6.53;;;;;;;;;;4930995;29;20047;-61
2022/04/29 09:11:10;;;;;;;13.80;7.53;;;;;;;;;;4934787;29;20043;-60
2022/04/29 09:13:40;;;;;;;16.58;6.80;;;;;;;;;;4929983;29;20169;-59
2022/04/29 09:16:12;;;;;;;14.43;6.50;;;;;;;;;;4934790;29;20056;-59
2022/04/29 09:18:39;;;;;;;12.82;6.40;;;;;;;;;;4934883;29;20075;-60
2022/04/29 09:21:14;;;;;;;17.95;6.20;;;;;;;;;;4934993;29;20079;-59
2022/04/29 09:23:45;;;;;;;19.88;6.20;;;;;;;;;;4933537;29;20138;-61
2022/04/29 09:26:24;;;;;;;12.98;6.22;;;;;;;;;;4932227;29;20102;-61
2022/04/29 09:28:52;;;;;;;17.08;6.53;;;;;;;;;;4936319;29;20075;-59
2022/04/29 09:31:18;;;;;;;26.23;6.28;;;;;;;;;;4932374;29;20055;-60
2022/04/29 09:33:57;;;;;;;18.08;6.78;;;;;;;;;;4937082;29;20048;-60
2022/04/29 09:36:25;;;;;;;15.55;6.32;;;;;;;;;;4934901;29;20048;-60
2022/04/29 09:41:52;;;;;;;10.65;5.88;;;;;;;;;;4932662;29;20054;-61
2022/04/29 09:44:34;;;;;;;14.77;6.18;;;;;;;;;;4933852;29;20066;-61
2022/04/29 09:47:11;;;;;;;10.15;5.22;;;;;;;;;;4939740;29;20036;-60
2022/04/29 09:49:36;;;;;;;14.45;5.40;;;;;;;;;;4929785;29;20040;-60
2022/04/29 09:52:02;;;;;;;13.98;5.60;;;;;;;;;;4935219;29;20382;-59
2022/04/29 09:54:37;;;;;;;13.45;6.13;;;;;;;;;;4933638;29;20111;-59
2022/04/29 09:57:09;;;;;;;14.20;6.75;;;;;;;;;;4926455;29;20048;-60
2022/04/29 09:59:42;;;;;;;11.05;5.70;;;;;;;;;;4933649;29;20087;-61
2022/04/29 10:02:10;;;;;;;12.18;6.05;;;;;;;;;;4934045;29;20067;-60
2022/04/29 10:04:39;;;;;;;11.88;5.65;;;;;;;;;;4934907;29;20134;-60
2022/04/29 10:07:07;;;;;;;14.32;5.40;;;;;;;;;;4935531;29;20107;-60
2022/04/29 10:09:39;;;;;;;11.52;4.82;;;;;;;;;;4936807;29;20046;-60
2022/04/29 10:12:13;;;;;;;11.30;6.00;;;;;;;;;;4931894;29;20095;-61
2022/04/29 10:14:40;;;;;;;11.70;5.85;;;;;;;;;;4939721;29;20061;-60
2022/04/29 10:23:13;;;;;;;11.27;5.53;;;;;;;;;;4947764;28;20109;-59
2022/04/29 10:25:43;;;;;;;12.63;5.13;;;;;;;;;;4955534;28;20126;-60
2022/04/29 10:28:10;;;;;;;14.52;5.50;;;;;;;;;;4957556;28;20133;-59
2022/04/29 10:30:37;;;;;;;11.10;5.90;;;;;;;;;;4955009;28;20043;-59
2022/04/29 10:36:08;;;;;;;14.63;5.53;;;;;;;;;;4950738;28;20467;-60
2022/04/29 10:38:35;;;;;;;10.23;5.15;;;;;;;;;;4952962;28;20066;-60
2022/04/29 10:41:10;;;;;;;17.17;5.60;;;;;;;;;;4958878;28;20053;-63
2022/04/29 10:43:36;;;;;;;14.45;5.55;;;;;;;;;;4957102;28;20043;-61
2022/04/29 10:46:05;;;;;;;9.00;5.13;;;;;;;;;;4962160;28;20046;-60
2022/04/29 10:48:37;;;;;;;9.10;4.60;;;;;;;;;;4954669;28;20043;-61
2022/04/29 10:51:27;;;;;;;12.00;4.47;;;;;;;;;;4950780;28;20039;-58
2022/04/29 10:53:55;;;;;;;9.75;5.10;;;;;;;;;;4956563;28;20047;-59
2022/04/29 10:56:26;;;;;;;8.35;4.38;;;;;;;;;;4942340;28;20468;-59
2022/04/29 10:58:52;;;;;;;12.65;4.38;;;;;;;;;;4954857;28;20360;-60
2022/04/29 11:01:31;;;;;;;11.23;4.50;;;;;;;;;;4956368;28;20059;-59
2022/04/29 11:03:56;;;;;;;11.82;4.50;;;;;;;;;;4955341;28;20051;-60
2022/04/29 11:06:38;;;;;;;7.45;3.90;;;;;;;;;;4934254;28;20047;-59
2022/04/29 11:09:35;;;;;;;7.05;4.07;;;;;;;;;;4958117;28;20062;-59
2022/04/29 11:12:01;;;;;;;11.30;4.20;;;;;;;;;;4949811;28;20131;-59
2022/04/29 11:14:27;;;;;;;11.07;4.20;;;;;;;;;;4939276;29;20039;-60
2022/04/29 11:16:55;;;;;;;12.15;3.90;;;;;;;;;;4935454;29;20032;-60
2022/04/29 11:19:27;;;;;;;9.93;4.13;;;;;;;;;;4939631;29;20102;-59
2022/04/29 11:24:43;;;;;;;16.17;4.65;;;;;;;;;;4938677;29;20291;-60
2022/04/29 11:27:09;;;;;;;13.63;3.72;;;;;;;;;;4939269;29;20047;-60
2022/04/29 11:29:45;;;;;;;13.95;4.13;;;;;;;;;;4932018;29;20133;-59
2022/04/29 11:32:11;;;;;;;8.27;3.53;;;;;;;;;;4935327;29;20062;-59
2022/04/29 11:35:04;;;;;;;11.80;4.07;;;;;;;;;;4935684;28;20055;-59
2022/04/29 11:37:33;;;;;;;14.90;4.13;;;;;;;;;;4939789;29;20079;-60
2022/04/29 11:40:05;;;;;;;7.78;3.88;;;;;;;;;;4933183;29;20074;-59
2022/04/29 11:42:31;;;;;;;7.70;3.28;;;;;;;;;;4938355;29;20051;-59
2022/04/29 11:45:23;;;;;;;6.05;3.50;;;;;;;;;;4936632;29;20074;-60
2022/04/29 11:47:48;;;;;;;10.13;3.28;;;;;;;;;;4930896;29;20048;-60
2022/04/29 11:50:14;;;;;;;8.43;3.58;;;;;;;;;;4935324;29;20496;-60
2022/04/29 11:52:39;;;;;;;9.45;3.65;;;;;;;;;;4920373;29;20059;-60
2022/04/29 11:55:17;;;;;;;10.60;3.72;;;;;;;;;;4935786;29;20050;-59
2022/04/29 11:57:47;;;;;;;11.45;3.80;;;;;;;;;;4932923;29;20051;-59
2022/04/29 12:00:25;;;;;;;6.85;3.63;;;;;;;;;;4936896;29;20157;-60
2022/04/29 12:02:51;;;;;;;7.25;3.50;;;;;;;;;;4936498;29;20143;-59
2022/04/29 12:05:23;;;;;;;10.05;3.90;;;;;;;;;;4938707;29;20036;-58
2022/04/29 12:07:48;;;;;;;5.72;3.25;;;;;;;;;;4935073;29;20435;-59
2022/04/29 12:10:20;;;;;;;5.43;3.60;;;;;;;;;;4922761;29;20127;-61
2022/04/29 12:12:49;;;;;;;7.80;3.70;;;;;;;;;;4936847;29;20102;-59
2022/04/29 12:15:19;;;;;;;6.15;3.55;;;;;;;;;;4937110;29;20079;-59
2022/04/29 12:17:45;;;;;;;7.53;3.38;;;;;;;;;;4934165;29;20101;-61
2022/04/29 12:20:20;;;;;;;6.20;3.53;;;;;;;;;;4934631;29;20031;-59
2022/04/29 12:22:50;;;;;;;5.38;3.05;;;;;;;;;;4954650;28;20049;-59
2022/04/29 12:25:28;;;;;;;6.82;2.88;;;;;;;;;;4960750;28;20051;-59
2022/04/29 12:28:16;;;;;;;10.43;3.28;;;;;;;;;;4945603;28;20067;-59
2022/04/29 12:36:50;;;;;;;3.17;2.13;;;;;;;;;;4935496;29;20055;-61
2022/04/29 12:39:24;;;;;;;5.85;2.25;;;;;;;;;;4932466;29;20066;-58
2022/04/29 12:42:21;;;;;;;5.93;2.00;;;;;;;;;;4936334;29;20043;-59
2022/04/29 12:45:07;;;;;;;3.40;2.13;;;;;;;;;;4932640;29;20055;-59
2022/04/29 12:47:38;;;;;;;3.85;2.17;;;;;;;;;;4919388;29;22004;-59
2022/04/29 12:50:28;;;;;;;4.13;2.20;;;;;;;;;;4939546;29;20074;-60
2022/04/29 12:53:08;;;;;;;2.55;2.00;;;;;;;;;;4930297;29;20091;-60
2022/04/29 12:55:44;;;;;;;4.00;2.30;;;;;;;;;;4936261;29;20051;-60
2022/04/29 12:58:16;;;;;;;5.05;1.98;;;;;;;;;;4931360;29;20490;-59
2022/04/29 13:00:59;;;;;;;3.78;2.10;;;;;;;;;;4940718;29;20447;-60
2022/04/29 13:03:27;;;;;;;;;;;;;;;;;;4938824;29;20094;-59
2022/04/29 13:05:55;;;;;;;6.22;2.20;;;;;;;;;;4936928;29;19930;-59
2022/04/29 13:08:21;;;;;;;4.43;2.33;;;;;;;;;;4931471;29;20122;-59
2022/04/29 13:10:51;;;;;;;6.30;2.47;;;;;;;;;;4940435;29;20114;-58
2022/04/29 13:13:18;;;;;;;4.22;2.10;;;;;;;;;;4935967;29;20051;-58
2022/04/29 13:15:44;;;;;;;5.10;2.20;;;;;;;;;;4936834;29;20143;-58
2022/04/29 13:18:11;;;;;;;4.45;2.40;;;;;;;;;;4931988;29;20107;-59
2022/04/29 13:20:36;;;;;;;4.95;2.30;;;;;;;;;;4935682;29;20040;-57
2022/04/29 13:23:02;;;;;;;7.13;2.45;;;;;;;;;;4937583;29;20035;-60
2022/04/29 13:25:28;;;;;;;7.05;2.03;;;;;;;;;;4932291;29;20076;-61
2022/04/29 13:27:53;;;;;;;4.90;2.40;;;;;;;;;;4931952;29;20056;-58
2022/04/29 13:30:19;;;;;;;2.33;2.00;;;;;;;;;;4934957;29;20194;-61
2022/04/29 13:32:45;;;;;;;3.08;1.90;;;;;;;;;;4934868;29;20043;-58
2022/04/29 13:35:11;;;;;;;6.22;2.00;;;;;;;;;;4940625;29;20047;-59
2022/04/29 13:37:38;;;;;;;2.78;2.08;;;;;;;;;;4936599;29;20050;-59
2022/04/29 13:40:05;;;;;;;4.30;2.30;;;;;;;;;;4935971;29;20066;-58
2022/04/29 13:42:31;;;;;;;5.20;2.10;;;;;;;;;;4937182;29;20395;-58
2022/04/29 13:44:58;;;;;;;5.78;2.00;;;;;;;;;;4931453;29;20106;-60
2022/04/29 13:47:24;;;;;;;2.88;2.03;;;;;;;;;;4935331;29;20126;-59
2022/04/29 13:49:49;;;;;;;4.25;2.20;;;;;;;;;;4940567;29;20194;-58
2022/04/29 13:54:58;;;;;;;3.65;2.40;;;;;;;;;;4934598;29;20054;-58
2022/04/29 13:57:24;;;;;;;3.67;2.33;;;;;;;;;;4936668;28;20421;-58
2022/04/29 13:59:50;;;;;;;3.10;1.80;;;;;;;;;;4940167;29;20047;-58
2022/04/29 14:02:16;;;;;;;2.78;1.80;;;;;;;;;;4939373;29;20453;-59
2022/04/29 14:04:41;;;;;;;3.67;1.98;;;;;;;;;;4940916;29;20043;-59
2022/04/29 14:07:07;;;;;;;3.90;2.30;;;;;;;;;;4936400;29;20048;-58
2022/04/29 14:09:32;;;;;;;2.80;2.33;;;;;;;;;;4934882;29;20035;-61
2022/04/29 14:11:58;;;;;;;7.10;1.92;;;;;;;;;;4935639;29;20496;-58
2022/04/29 14:14:24;;;;;;;2.25;1.90;;;;;;;;;;4935491;29;20040;-60
2022/04/29 14:16:50;;;;;;;3.95;1.85;;;;;;;;;;4940617;29;20039;-58
2022/04/29 14:19:16;;;;;;;2.45;1.90;;;;;;;;;;4940820;29;20485;-59
2022/04/29 14:21:42;;;;;;;9.90;2.20;;;;;;;;;;4936513;28;20067;-59
2022/04/29 14:24:08;;;;;;;5.78;2.20;;;;;;;;;;4941107;29;20079;-58
2022/04/29 14:26:35;;;;;;;3.58;2.10;;;;;;;;;;4939506;29;20087;-60
2022/04/29 14:29:02;;;;;;;5.72;2.60;;;;;;;;;;4938034;29;20035;-58
2022/04/29 14:31:30;;;;;;;3.28;1.77;;;;;;;;;;4937378;29;20130;-58
2022/04/29 14:33:58;;;;;;;3.22;2.10;;;;;;;;;;4938325;29;20047;-58
2022/04/29 14:36:32;;;;;;;4.03;2.10;;;;;;;;;;4942138;29;20058;-59
2022/04/29 14:39:01;;;;;;;3.72;2.03;;;;;;;;;;4922612;29;20190;-59
2022/04/29 14:41:26;;;;;;;2.58;2.03;;;;;;;;;;4941349;29;20046;-58
2022/04/29 14:43:52;;;;;;;4.07;2.03;;;;;;;;;;4936006;29;20461;-59
2022/04/29 14:46:17;;;;;;;7.53;2.40;;;;;;;;;;4941944;29;20405;-59
2022/04/29 14:48:43;;;;;;;6.38;2.40;;;;;;;;;;4938116;29;20091;-57
2022/04/29 14:51:10;;;;;;;4.13;2.05;;;;;;;;;;4942043;29;20143;-60
2022/04/29 14:53:37;;;;;;;5.53;2.78;;;;;;;;;;4930262;29;20070;-59
2022/04/29 14:56:07;;;;;;;5.28;2.33;;;;;;;;;;4937453;28;20130;-59
2022/04/29 14:58:33;;;;;;;4.10;2.45;;;;;;;;;;4936916;29;20075;-58
2022/04/29 15:03:28;;;;;;;3.63;2.08;;;;;;;;;;4950126;28;20622;-59
2022/04/29 15:05:56;;;;;;;4.15;2.10;;;;;;;;;;4953362;28;20039;-58
2022/04/29 15:08:22;;;;;;;3.90;2.20;;;;;;;;;;4952422;28;20400;-58
2022/04/29 15:16:16;;;;;;;2.78;2.15;;;;;;;;;;4940797;28;20102;-58
2022/04/29 15:18:43;;;;;;;2.58;2.17;;;;;;;;;;4958137;28;20566;-59
2022/04/29 15:21:08;;;;;;;2.78;2.25;;;;;;;;;;4957019;28;20097;-59
2022/04/29 15:23:34;;;;;;;2.92;2.10;;;;;;;;;;4954916;28;20051;-59
2022/04/29 15:25:59;;;;;;;5.57;2.08;;;;;;;;;;4955385;28;20058;-58
2022/04/29 15:28:27;;;;;;;4.35;2.10;;;;;;;;;;4950510;28;20457;-59
2022/04/29 15:30:53;;;;;;;2.28;1.98;;;;;;;;;;4953498;28;20043;-59
2022/04/29 15:33:21;;;;;;;2.42;1.92;;;;;;;;;;4947140;28;20393;-62